Pilot Station, Alaska
Current Conditions -  °F | °C
As of 8:36 PM on Wednesday 26 Nov 2014 (Local Time) from PASM Reporting Station
Overcast Overcast  
Wind Chill: 12°   Ceiling: 1900
Heat Index: 25°   Visibility: 4mi
Dew Point: 18°   Wind: 15mph
Humidity: 74%   Direction: 90°E
Pressure: 30.15"   Gusts: NA
Location:  61.94°N, 162.88°W
Report Text: PASM 270536Z AUTO 09013KT 4SM FEW009 BKN019 OVC038 M04/M08 A3015 RMK AO1
Loading
Personal Weather Stations






























Interactive Weather Map New forecast layout! Learn more

10-Day Weather Forecast

Advertisements
Track Severe Weather on mobile